sensor_id;sensor_type;location;lat;lon;timestamp;pressure;altitude;pressure_sealevel;temperature;humidity
56514;BME280;62152;52.078;8.414;2023-06-22T00:01:05;100485.78;;;24.44;52.53
56514;BME280;62152;52.078;8.414;2023-06-22T00:05:07;100486.56;;;24.45;52.17
56514;BME280;62152;52.078;8.414;2023-06-22T00:09:08;100491.31;;;24.44;52.27
56514;BME280;62152;52.078;8.414;2023-06-22T00:13:10;100477.84;;;24.43;52.30
56514;BME280;62152;52.078;8.414;2023-06-22T00:17:11;100480.63;;;24.43;52.08
56514;BME280;62152;52.078;8.414;2023-06-22T00:21:13;100467.94;;;24.42;52.21
56514;BME280;62152;52.078;8.414;2023-06-22T00:25:14;100473.50;;;24.42;52.31
56514;BME280;62152;52.078;8.414;2023-06-22T00:29:15;100447.75;;;24.41;51.88
56514;BME280;62152;52.078;8.414;2023-06-22T00:33:16;100453.72;;;24.40;52.26
56514;BME280;62152;52.078;8.414;2023-06-22T00:37:18;100454.91;;;24.39;52.10
56514;BME280;62152;52.078;8.414;2023-06-22T00:41:19;100460.44;;;24.39;51.89
56514;BME280;62152;52.078;8.414;2023-06-22T00:45:20;100450.94;;;24.40;52.01
56514;BME280;62152;52.078;8.414;2023-06-22T00:49:21;100445.81;;;24.38;52.41
56514;BME280;62152;52.078;8.414;2023-06-22T00:53:25;100429.97;;;24.39;51.91
56514;BME280;62152;52.078;8.414;2023-06-22T00:57:26;100438.28;;;24.39;51.88
56514;BME280;62152;52.078;8.414;2023-06-22T01:01:29;100430.38;;;24.37;52.13
56514;BME280;62152;52.078;8.414;2023-06-22T01:05:31;100440.66;;;24.37;52.35
56514;BME280;62152;52.078;8.414;2023-06-22T01:09:41;100442.25;;;24.38;52.12
56514;BME280;62152;52.078;8.414;2023-06-22T01:13:57;100436.69;;;24.38;51.89
56514;BME280;62152;52.078;8.414;2023-06-22T01:18:07;100434.31;;;24.36;52.19
56514;BME280;62152;52.078;8.414;2023-06-22T01:22:13;100429.59;;;24.37;52.23
56514;BME280;62152;52.078;8.414;2023-06-22T01:26:21;100434.72;;;24.35;52.34
56514;BME280;62152;52.078;8.414;2023-06-22T01:30:30;100437.50;;;24.35;52.01
56514;BME280;62152;52.078;8.414;2023-06-22T01:34:33;100438.28;;;24.35;52.08
56514;BME280;62152;52.078;8.414;2023-06-22T01:38:39;100442.63;;;24.36;52.14
56514;BME280;62152;52.078;8.414;2023-06-22T01:42:41;100443.03;;;24.35;52.08
56514;BME280;62152;52.078;8.414;2023-06-22T01:46:46;100438.28;;;24.35;52.07
56514;BME280;62152;52.078;8.414;2023-06-22T01:50:48;100433.16;;;24.34;52.10
56514;BME280;62152;52.078;8.414;2023-06-22T01:54:49;100435.91;;;24.34;51.93
56514;BME280;62152;52.078;8.414;2023-06-22T01:58:57;100442.25;;;24.34;51.94
56514;BME280;62152;52.078;8.414;2023-06-22T02:03:11;100438.69;;;24.34;52.08
56514;BME280;62152;52.078;8.414;2023-06-22T02:07:15;100437.09;;;24.33;52.02
56514;BME280;62152;52.078;8.414;2023-06-22T02:11:21;100450.16;;;24.32;52.07
56514;BME280;62152;52.078;8.414;2023-06-22T02:15:26;100452.94;;;24.32;52.09
56514;BME280;62152;52.078;8.414;2023-06-22T02:19:30;100452.94;;;24.32;51.93
56514;BME280;62152;52.078;8.414;2023-06-22T02:23:31;100449.38;;;24.32;51.79
56514;BME280;62152;52.078;8.414;2023-06-22T02:27:32;100454.91;;;24.32;52.12
56514;BME280;62152;52.078;8.414;2023-06-22T02:31:33;100452.13;;;24.32;51.84
56514;BME280;62152;52.078;8.414;2023-06-22T02:35:35;100452.53;;;24.30;51.95
56514;BME280;62152;52.078;8.414;2023-06-22T02:39:36;100442.25;;;24.31;51.94
56514;BME280;62152;52.078;8.414;2023-06-22T02:43:37;100450.56;;;24.31;52.02
56514;BME280;62152;52.078;8.414;2023-06-22T02:47:38;100451.75;;;24.29;51.87
56514;BME280;62152;52.078;8.414;2023-06-22T02:51:44;100450.94;;;24.29;51.89
56514;BME280;62152;52.078;8.414;2023-06-22T02:55:47;100450.16;;;24.28;52.05
56514;BME280;62152;52.078;8.414;2023-06-22T02:59:48;100445.41;;;24.29;52.17
56514;BME280;62152;52.078;8.414;2023-06-22T03:03:50;100444.59;;;24.28;52.17
56514;BME280;62152;52.078;8.414;2023-06-22T03:07:52;100440.25;;;24.27;52.19
56514;BME280;62152;52.078;8.414;2023-06-22T03:11:53;100438.28;;;24.28;51.98
56514;BME280;62152;52.078;8.414;2023-06-22T03:15:55;100445.81;;;24.27;52.22
56514;BME280;62152;52.078;8.414;2023-06-22T03:19:56;100445.81;;;24.27;52.07
56514;BME280;62152;52.078;8.414;2023-06-22T03:23:58;100440.25;;;24.27;51.88
56514;BME280;62152;52.078;8.414;2023-06-22T03:27:59;100439.47;;;24.27;52.17
56514;BME280;62152;52.078;8.414;2023-06-22T03:32:00;100439.88;;;24.25;52.35
56514;BME280;62152;52.078;8.414;2023-06-22T03:36:01;100449.41;;;24.24;52.22
56514;BME280;62152;52.078;8.414;2023-06-22T03:40:05;100445.84;;;24.20;52.47
56514;BME280;62152;52.078;8.414;2023-06-22T03:44:06;100452.16;;;24.21;52.15
56514;BME280;62152;52.078;8.414;2023-06-22T03:48:07;100446.63;;;24.21;52.15
56514;BME280;62152;52.078;8.414;2023-06-22T03:52:08;100439.09;;;24.21;52.33
56514;BME280;62152;52.078;8.414;2023-06-22T03:56:10;100448.59;;;24.20;52.13
56514;BME280;62152;52.078;8.414;2023-06-22T04:00:12;100444.66;;;24.21;52.26
56514;BME280;62152;52.078;8.414;2023-06-22T04:04:13;100445.88;;;24.17;51.80
56514;BME280;62152;52.078;8.414;2023-06-22T04:08:14;100446.28;;;24.01;51.98
56514;BME280;62152;52.078;8.414;2023-06-22T04:12:17;100439.59;;;23.95;52.01
56514;BME280;62152;52.078;8.414;2023-06-22T04:16:18;100438.41;;;23.92;51.87
56514;BME280;62152;52.078;8.414;2023-06-22T04:20:18;100438.81;;;23.91;51.73
56514;BME280;62152;52.078;8.414;2023-06-22T04:24:19;100440.00;;;23.90;51.70
56514;BME280;62152;52.078;8.414;2023-06-22T04:28:21;100443.97;;;23.96;51.68
56514;BME280;62152;52.078;8.414;2023-06-22T04:32:22;100443.94;;;24.03;51.54
56514;BME280;62152;52.078;8.414;2023-06-22T04:36:23;100440.34;;;24.06;51.49
56514;BME280;62152;52.078;8.414;2023-06-22T04:40:24;100434.03;;;24.09;51.50
56514;BME280;62152;52.078;8.414;2023-06-22T04:44:26;100426.50;;;24.10;51.69
56514;BME280;62152;52.078;8.414;2023-06-22T04:48:27;100434.41;;;24.11;51.54
56514;BME280;62152;52.078;8.414;2023-06-22T04:52:28;100428.84;;;24.11;51.72
56514;BME280;62152;52.078;8.414;2023-06-22T04:56:28;100420.94;;;24.13;51.50
56514;BME280;62152;52.078;8.414;2023-06-22T05:00:31;100430.81;;;24.14;51.30
56514;BME280;62152;52.078;8.414;2023-06-22T05:04:32;100430.44;;;24.16;51.69
56514;BME280;62152;52.078;8.414;2023-06-22T05:08:33;100437.94;;;24.15;51.51
56514;BME280;62152;52.078;8.414;2023-06-22T05:12:34;100435.97;;;24.16;51.52
56514;BME280;62152;52.078;8.414;2023-06-22T05:16:36;100420.13;;;24.16;51.84
56514;BME280;62152;52.078;8.414;2023-06-22T05:20:37;100420.13;;;24.16;51.46
56514;BME280;62152;52.078;8.414;2023-06-22T05:24:38;100420.53;;;24.18;51.55
56514;BME280;62152;52.078;8.414;2023-06-22T05:28:38;100426.84;;;24.19;51.82
56514;BME280;62152;52.078;8.414;2023-06-22T05:32:41;100421.31;;;24.19;51.54
56514;BME280;62152;52.078;8.414;2023-06-22T05:36:41;100416.56;;;24.19;51.64
56514;BME280;62152;52.078;8.414;2023-06-22T05:40:42;100412.56;;;24.20;51.44
56514;BME280;62152;52.078;8.414;2023-06-22T05:44:43;100410.59;;;24.21;51.67
56514;BME280;62152;52.078;8.414;2023-06-22T05:48:45;100420.47;;;24.22;51.83
56514;BME280;62152;52.078;8.414;2023-06-22T05:52:46;100411.38;;;24.21;51.37
56514;BME280;62152;52.078;8.414;2023-06-22T05:56:47;100413.78;;;24.23;51.73
56514;BME280;62152;52.078;8.414;2023-06-22T06:00:47;100422.88;;;24.23;51.73
56514;BME280;62152;52.078;8.414;2023-06-22T06:04:50;100414.16;;;24.25;51.26
56514;BME280;62152;52.078;8.414;2023-06-22T06:08:50;100406.63;;;24.25;51.55
56514;BME280;62152;52.078;8.414;2023-06-22T06:12:52;100412.97;;;24.26;51.57
56514;BME280;62152;52.078;8.414;2023-06-22T06:16:53;100410.19;;;24.26;51.45
56514;BME280;62152;52.078;8.414;2023-06-22T06:20:55;100412.16;;;24.25;51.44
56514;BME280;62152;52.078;8.414;2023-06-22T06:24:56;100424.41;;;24.28;51.49
56514;BME280;62152;52.078;8.414;2023-06-22T06:28:56;100417.72;;;24.25;51.81
56514;BME280;62152;52.078;8.414;2023-06-22T06:32:57;100416.94;;;24.25;51.50
56514;BME280;62152;52.078;8.414;2023-06-22T06:37:00;100425.63;;;24.27;51.58
56514;BME280;62152;52.078;8.414;2023-06-22T06:41:00;100423.25;;;24.25;51.62
56514;BME280;62152;52.078;8.414;2023-06-22T06:45:02;100413.75;;;24.26;51.41
56514;BME280;62152;52.078;8.414;2023-06-22T06:49:02;100408.56;;;24.28;51.68
56514;BME280;62152;52.078;8.414;2023-06-22T06:53:05;100420.88;;;24.27;51.34
56514;BME280;62152;52.078;8.414;2023-06-22T06:57:06;100420.44;;;24.29;51.42
56514;BME280;62152;52.078;8.414;2023-06-22T07:01:06;100410.19;;;24.29;51.69
56514;BME280;62152;52.078;8.414;2023-06-22T07:05:07;100423.22;;;24.29;51.73
56514;BME280;62152;52.078;8.414;2023-06-22T07:09:10;100412.94;;;24.29;51.37
56514;BME280;62152;52.078;8.414;2023-06-22T07:13:11;100407.41;;;24.29;51.81
56514;BME280;62152;52.078;8.414;2023-06-22T07:17:12;100406.59;;;24.29;51.42
56514;BME280;62152;52.078;8.414;2023-06-22T07:21:12;100407.41;;;24.29;51.48
56514;BME280;62152;52.078;8.414;2023-06-22T07:25:14;100412.13;;;24.29;51.29
56514;BME280;62152;52.078;8.414;2023-06-22T07:29:16;100411.75;;;24.31;51.60
56514;BME280;62152;52.078;8.414;2023-06-22T07:33:16;100401.06;;;24.29;51.81
56514;BME280;62152;52.078;8.414;2023-06-22T07:37:17;100393.56;;;24.29;51.34
56514;BME280;62152;52.078;8.414;2023-06-22T07:41:19;100386.81;;;24.31;51.55
56514;BME280;62152;52.078;8.414;2023-06-22T07:45:20;100403.44;;;24.31;51.67
56514;BME280;62152;52.078;8.414;2023-06-22T07:49:21;100408.97;;;24.31;51.66
56514;BME280;62152;52.078;8.414;2023-06-22T07:53:22;100401.47;;;24.31;51.80
56514;BME280;62152;52.078;8.414;2023-06-22T07:57:25;100388.38;;;24.32;51.54
56514;BME280;62152;52.078;8.414;2023-06-22T08:01:25;100385.22;;;24.33;51.43
56514;BME280;62152;52.078;8.414;2023-06-22T08:05:26;100386.03;;;24.34;51.29
56514;BME280;62152;52.078;8.414;2023-06-22T08:09:28;100377.28;;;24.35;51.51
56514;BME280;62152;52.078;8.414;2023-06-22T08:13:30;100372.53;;;24.36;51.30
56514;BME280;62152;52.078;8.414;2023-06-22T08:17:31;100381.25;;;24.38;51.28
56514;BME280;62152;52.078;8.414;2023-06-22T08:21:31;100377.28;;;24.39;51.33
56514;BME280;62152;52.078;8.414;2023-06-22T08:25:33;100385.97;;;24.41;51.01
56514;BME280;62152;52.078;8.414;2023-06-22T08:29:35;100383.59;;;24.43;51.24
56514;BME280;62152;52.078;8.414;2023-06-22T08:33:36;100374.09;;;24.44;51.11
56514;BME280;62152;52.078;8.414;2023-06-22T08:37:37;100368.56;;;24.44;51.67
56514;BME280;62152;52.078;8.414;2023-06-22T08:41:37;100363.38;;;24.46;51.38
56514;BME280;62152;52.078;8.414;2023-06-22T08:45:39;100366.16;;;24.46;51.22
56514;BME280;62152;52.078;8.414;2023-06-22T08:49:40;100367.72;;;24.47;51.40
56514;BME280;62152;52.078;8.414;2023-06-22T08:53:41;100360.97;;;24.48;51.25
56514;BME280;62152;52.078;8.414;2023-06-22T08:57:42;100352.25;;;24.49;50.88
56514;BME280;62152;52.078;8.414;2023-06-22T09:01:44;100359.41;;;24.50;51.03
56514;BME280;62152;52.078;8.414;2023-06-22T09:05:45;100345.91;;;24.49;50.85
56514;BME280;62152;52.078;8.414;2023-06-22T09:09:46;100328.91;;;24.50;51.08
56514;BME280;62152;52.078;8.414;2023-06-22T09:13:46;100317.81;;;24.50;50.85
56514;BME280;62152;52.078;8.414;2023-06-22T09:17:49;100315.81;;;24.51;51.18
56514;BME280;62152;52.078;8.414;2023-06-22T09:21:50;100303.53;;;24.52;50.92
56514;BME280;62152;52.078;8.414;2023-06-22T09:25:51;100303.91;;;24.54;50.97
56514;BME280;62152;52.078;8.414;2023-06-22T09:29:51;100303.91;;;24.58;50.89
56514;BME280;62152;52.078;8.414;2023-06-22T09:33:54;100299.91;;;24.59;50.68
56514;BME280;62152;52.078;8.414;2023-06-22T09:37:55;100302.69;;;24.59;50.93
56514;BME280;62152;52.078;8.414;2023-06-22T09:41:57;100299.91;;;24.59;50.82
56514;BME280;62152;52.078;8.414;2023-06-22T09:45:58;100305.06;;;24.60;51.14
56514;BME280;62152;52.078;8.414;2023-06-22T09:50:00;100291.97;;;24.64;51.08
56514;BME280;62152;52.078;8.414;2023-06-22T09:54:01;100294.72;;;24.64;50.65
56514;BME280;62152;52.078;8.414;2023-06-22T09:58:02;100291.97;;;24.64;50.94
56514;BME280;62152;52.078;8.414;2023-06-22T10:02:03;100289.97;;;24.65;50.69
56514;BME280;62152;52.078;8.414;2023-06-22T10:06:06;100286.41;;;24.64;50.85
56514;BME280;62152;52.078;8.414;2023-06-22T10:10:08;100275.31;;;24.64;50.75
56514;BME280;62152;52.078;8.414;2023-06-22T10:14:09;100278.09;;;24.64;50.89
56514;BME280;62152;52.078;8.414;2023-06-22T10:18:10;100275.31;;;24.64;50.96
56514;BME280;62152;52.078;8.414;2023-06-22T10:22:12;100267.38;;;24.63;51.03
56514;BME280;62152;52.078;8.414;2023-06-22T10:26:13;100268.59;;;24.62;50.89
56514;BME280;62152;52.078;8.414;2023-06-22T10:30:14;100269.41;;;24.59;51.20
56514;BME280;62152;52.078;8.414;2023-06-22T10:34:15;100272.97;;;24.59;51.31
56514;BME280;62152;52.078;8.414;2023-06-22T10:38:17;100271.78;;;24.60;50.73
56514;BME280;62152;52.078;8.414;2023-06-22T10:42:18;100276.13;;;24.61;50.95
56514;BME280;62152;52.078;8.414;2023-06-22T10:46:19;100268.16;;;24.63;51.04
56514;BME280;62152;52.078;8.414;2023-06-22T10:50:20;100271.34;;;24.65;50.68
56514;BME280;62152;52.078;8.414;2023-06-22T10:54:22;100260.63;;;24.67;50.84
56514;BME280;62152;52.078;8.414;2023-06-22T10:58:23;100246.75;;;24.67;50.79
56514;BME280;62152;52.078;8.414;2023-06-22T11:02:24;100241.56;;;24.69;50.83
56514;BME280;62152;52.078;8.414;2023-06-22T11:06:24;100238.06;;;24.65;50.73
56514;BME280;62152;52.078;8.414;2023-06-22T11:10:26;100228.53;;;24.66;50.92
56514;BME280;62152;52.078;8.414;2023-06-22T11:14:27;100220.22;;;24.66;50.69
56514;BME280;62152;52.078;8.414;2023-06-22T11:18:28;100225.34;;;24.68;50.62
56514;BME280;62152;52.078;8.414;2023-06-22T11:22:29;100222.56;;;24.68;50.51
56514;BME280;62152;52.078;8.414;2023-06-22T11:26:31;100212.63;;;24.70;50.79
56514;BME280;62152;52.078;8.414;2023-06-22T11:30:33;100199.19;;;24.69;50.83
56514;BME280;62152;52.078;8.414;2023-06-22T11:34:33;100194.03;;;24.71;50.59
56514;BME280;62152;52.078;8.414;2023-06-22T11:38:34;100189.28;;;24.71;50.56
56514;BME280;62152;52.078;8.414;2023-06-22T11:42:36;100192.84;;;24.72;50.74
56514;BME280;62152;52.078;8.414;2023-06-22T11:46:37;100185.31;;;24.72;50.67
56514;BME280;62152;52.078;8.414;2023-06-22T11:50:38;100169.88;;;24.71;50.43
56514;BME280;62152;52.078;8.414;2023-06-22T11:54:38;100165.50;;;24.70;50.79
56514;BME280;62152;52.078;8.414;2023-06-22T11:58:41;100159.94;;;24.70;50.62
56514;BME280;62152;52.078;8.414;2023-06-22T12:02:41;100164.69;;;24.73;50.47
56514;BME280;62152;52.078;8.414;2023-06-22T12:06:42;100157.94;;;24.74;50.92
56514;BME280;62152;52.078;8.414;2023-06-22T12:10:43;100165.47;;;24.74;50.48
56514;BME280;62152;52.078;8.414;2023-06-22T12:14:45;100155.94;;;24.75;50.76
56514;BME280;62152;52.078;8.414;2023-06-22T12:18:47;100160.72;;;24.74;50.66
56514;BME280;62152;52.078;8.414;2023-06-22T12:22:48;100157.94;;;24.74;50.57
56514;BME280;62152;52.078;8.414;2023-06-22T12:26:49;100172.63;;;24.71;50.55
56514;BME280;62152;52.078;8.414;2023-06-22T12:30:51;100180.56;;;24.69;50.85
56514;BME280;62152;52.078;8.414;2023-06-22T12:34:52;100198.81;;;24.67;50.84
56514;BME280;62152;52.078;8.414;2023-06-22T12:38:53;100204.00;;;24.65;50.86
56514;BME280;62152;52.078;8.414;2023-06-22T12:42:53;100204.38;;;24.63;51.01
56514;BME280;62152;52.078;8.414;2023-06-22T12:46:55;100199.25;;;24.62;50.85
56514;BME280;62152;52.078;8.414;2023-06-22T12:50:56;100194.13;;;24.60;50.99
56514;BME280;62152;52.078;8.414;2023-06-22T12:54:57;100191.78;;;24.59;50.94
56514;BME280;62152;52.078;8.414;2023-06-22T12:58:58;100189.41;;;24.57;50.98
56514;BME280;62152;52.078;8.414;2023-06-22T13:03:00;100177.50;;;24.56;50.83
56514;BME280;62152;52.078;8.414;2023-06-22T13:07:01;100163.28;;;24.54;50.80
56514;BME280;62152;52.078;8.414;2023-06-22T13:11:01;100152.97;;;24.55;50.80
56514;BME280;62152;52.078;8.414;2023-06-22T13:15:03;100145.06;;;24.53;50.73
56514;BME280;62152;52.078;8.414;2023-06-22T13:19:05;100137.97;;;24.52;51.03
56514;BME280;62152;52.078;8.414;2023-06-22T13:23:06;100153.81;;;24.52;50.98
56514;BME280;62152;52.078;8.414;2023-06-22T13:27:07;100173.63;;;24.50;51.24
56514;BME280;62152;52.078;8.414;2023-06-22T13:31:08;100170.88;;;24.50;51.10
56514;BME280;62152;52.078;8.414;2023-06-22T13:35:11;100169.25;;;24.49;51.37
56514;BME280;62152;52.078;8.414;2023-06-22T13:39:12;100164.13;;;24.48;51.40
56514;BME280;62152;52.078;8.414;2023-06-22T13:43:13;100165.72;;;24.49;51.12
56514;BME280;62152;52.078;8.414;2023-06-22T13:47:14;100158.59;;;24.48;51.14
56514;BME280;62152;52.078;8.414;2023-06-22T13:51:16;100164.13;;;24.48;51.01
56514;BME280;62152;52.078;8.414;2023-06-22T13:55:17;100158.22;;;24.46;51.02
56514;BME280;62152;52.078;8.414;2023-06-22T13:59:18;100166.53;;;24.46;50.98
56514;BME280;62152;52.078;8.414;2023-06-22T14:03:19;100158.22;;;24.46;51.08
56514;BME280;62152;52.078;8.414;2023-06-22T14:07:21;100096.44;;;24.45;51.35
56514;BME280;62152;52.078;8.414;2023-06-22T14:11:22;99997.84;;;24.44;50.92
56514;BME280;62152;52.078;8.414;2023-06-22T14:15:23;100016.47;;;24.44;51.20
56514;BME280;62152;52.078;8.414;2023-06-22T14:19:24;100038.66;;;24.44;50.95
56514;BME280;62152;52.078;8.414;2023-06-22T14:23:27;100039.44;;;24.44;51.13
56514;BME280;62152;52.078;8.414;2023-06-22T14:27:28;100022.03;;;24.44;50.93
56514;BME280;62152;52.078;8.414;2023-06-22T14:31:28;99988.34;;;24.45;50.86
56514;BME280;62152;52.078;8.414;2023-06-22T14:35:29;99968.13;;;24.45;50.74
56514;BME280;62152;52.078;8.414;2023-06-22T14:39:31;99966.16;;;24.45;51.13
56514;BME280;62152;52.078;8.414;2023-06-22T14:43:32;99962.59;;;24.45;50.77
56514;BME280;62152;52.078;8.414;2023-06-22T14:47:33;99955.84;;;24.46;50.64
56514;BME280;62152;52.078;8.414;2023-06-22T14:51:34;99957.41;;;24.47;50.94
56514;BME280;62152;52.078;8.414;2023-06-22T14:55:36;99965.31;;;24.48;51.01
56514;BME280;62152;52.078;8.414;2023-06-22T14:59:37;99979.94;;;24.49;50.93
56514;BME280;62152;52.078;8.414;2023-06-22T15:03:38;99974.84;;;24.47;51.04
56514;BME280;62152;52.078;8.414;2023-06-22T15:07:39;99975.63;;;24.48;50.90
56514;BME280;62152;52.078;8.414;2023-06-22T15:11:41;99983.94;;;24.48;50.93
56514;BME280;62152;52.078;8.414;2023-06-22T15:15:42;99973.25;;;24.46;50.80
56514;BME280;62152;52.078;8.414;2023-06-22T15:19:43;99968.50;;;24.47;50.91
56514;BME280;62152;52.078;8.414;2023-06-22T15:23:43;99958.19;;;24.47;50.67
56514;BME280;62152;52.078;8.414;2023-06-22T15:27:46;99958.63;;;24.46;50.90
56514;BME280;62152;52.078;8.414;2023-06-22T15:31:46;99949.53;;;24.45;50.70
56514;BME280;62152;52.078;8.414;2023-06-22T15:35:47;99938.00;;;24.47;51.08
56514;BME280;62152;52.078;8.414;2023-06-22T15:39:48;99917.81;;;24.46;50.83
56514;BME280;62152;52.078;8.414;2023-06-22T15:43:50;99926.50;;;24.48;50.89
56514;BME280;62152;52.078;8.414;2023-06-22T15:47:51;99909.88;;;24.48;50.90
56514;BME280;62152;52.078;8.414;2023-06-22T15:51:52;99876.19;;;24.50;51.00
56514;BME280;62152;52.078;8.414;2023-06-22T15:55:53;99844.00;;;24.56;50.85
56514;BME280;62152;52.078;8.414;2023-06-22T15:59:55;99849.19;;;24.54;50.86
56514;BME280;62152;52.078;8.414;2023-06-22T16:03:56;99832.19;;;24.52;51.04
56514;BME280;62152;52.078;8.414;2023-06-22T16:07:57;99820.34;;;24.51;50.63
56514;BME280;62152;52.078;8.414;2023-06-22T16:11:57;99805.69;;;24.51;50.71
56514;BME280;62152;52.078;8.414;2023-06-22T16:16:00;99788.28;;;24.50;50.88
56514;BME280;62152;52.078;8.414;2023-06-22T16:20:00;99768.06;;;24.50;51.04
56514;BME280;62152;52.078;8.414;2023-06-22T16:24:01;99779.56;;;24.48;51.01
56514;BME280;62152;52.078;8.414;2023-06-22T16:28:02;99805.72;;;24.47;50.88
56514;BME280;62152;52.078;8.414;2023-06-22T16:32:05;99817.25;;;24.46;51.06
56514;BME280;62152;52.078;8.414;2023-06-22T16:36:07;99823.22;;;24.44;51.03
56514;BME280;62152;52.078;8.414;2023-06-22T16:40:08;99823.59;;;24.43;51.01
56514;BME280;62152;52.078;8.414;2023-06-22T16:44:09;99819.28;;;24.42;51.36
56514;BME280;62152;52.078;8.414;2023-06-22T16:48:11;99811.81;;;24.39;51.69
56514;BME280;62152;52.078;8.414;2023-06-22T16:52:12;99791.66;;;24.35;52.59
56514;BME280;62152;52.078;8.414;2023-06-22T16:56:13;99805.59;;;24.27;54.20
56514;BME280;62152;52.078;8.414;2023-06-22T17:00:15;99829.75;;;24.27;54.61
56514;BME280;62152;52.078;8.414;2023-06-22T17:04:21;99868.91;;;24.29;55.28
56514;BME280;62152;52.078;8.414;2023-06-22T17:08:27;99919.16;;;24.35;55.51
56514;BME280;62152;52.078;8.414;2023-06-22T17:12:30;99956.72;;;24.39;54.85
56514;BME280;62152;52.078;8.414;2023-06-22T17:16:31;99928.22;;;24.39;55.75
56514;BME280;62152;52.078;8.414;2023-06-22T17:20:36;99974.91;;;24.40;56.02
56514;BME280;62152;52.078;8.414;2023-06-22T17:24:39;99991.59;;;24.37;58.34
56514;BME280;62152;52.078;8.414;2023-06-22T17:28:47;99946.81;;;24.04;58.83
56514;BME280;62152;52.078;8.414;2023-06-22T17:32:49;99950.09;;;24.29;57.47
56514;BME280;62152;52.078;8.414;2023-06-22T17:36:51;99889.41;;;24.39;56.92
56514;BME280;62152;52.078;8.414;2023-06-22T17:41:00;99881.47;;;24.41;56.51
56514;BME280;62152;52.078;8.414;2023-06-22T17:45:01;99867.19;;;24.42;56.54
56514;BME280;62152;52.078;8.414;2023-06-22T17:49:06;99837.47;;;24.43;56.07
56514;BME280;62152;52.078;8.414;2023-06-22T17:53:11;99795.88;;;24.43;55.84
56514;BME280;62152;52.078;8.414;2023-06-22T17:57:16;99790.00;;;24.41;55.73
56514;BME280;62152;52.078;8.414;2023-06-22T18:01:28;99818.06;;;24.43;55.36
56514;BME280;62152;52.078;8.414;2023-06-22T18:05:31;99822.03;;;24.42;55.35
56514;BME280;62152;52.078;8.414;2023-06-22T18:09:34;99811.06;;;24.35;58.14
56514;BME280;62152;52.078;8.414;2023-06-22T18:13:36;99784.31;;;24.21;58.13
56514;BME280;62152;52.078;8.414;2023-06-22T18:17:41;99761.88;;;24.12;59.13
56514;BME280;62152;52.078;8.414;2023-06-22T18:21:45;99770.63;;;24.10;59.21
56514;BME280;62152;52.078;8.414;2023-06-22T18:25:49;99768.34;;;24.28;58.64
56514;BME280;62152;52.078;8.414;2023-06-22T18:29:50;99771.81;;;24.36;58.45
56514;BME280;62152;52.078;8.414;2023-06-22T18:33:57;99758.34;;;24.38;59.61
56514;BME280;62152;52.078;8.414;2023-06-22T18:37:59;99744.84;;;24.40;60.72
56514;BME280;62152;52.078;8.414;2023-06-22T18:42:03;99748.38;;;24.44;58.85
56514;BME280;62152;52.078;8.414;2023-06-22T18:46:32;99762.63;;;24.43;59.93
56514;BME280;62152;52.078;8.414;2023-06-22T18:50:40;99763.44;;;24.43;59.94
56514;BME280;62152;52.078;8.414;2023-06-22T18:54:43;99763.44;;;24.43;59.19
56514;BME280;62152;52.078;8.414;2023-06-22T18:58:55;99750.75;;;24.42;58.36
56514;BME280;62152;52.078;8.414;2023-06-22T19:02:59;99758.28;;;24.42;59.59
56514;BME280;62152;52.078;8.414;2023-06-22T19:07:00;99748.75;;;24.43;59.57
56514;BME280;62152;52.078;8.414;2023-06-22T19:11:11;99741.25;;;24.43;60.10
56514;BME280;62152;52.078;8.414;2023-06-22T19:15:13;99729.75;;;24.45;58.06
56514;BME280;62152;52.078;8.414;2023-06-22T19:19:15;99747.16;;;24.45;58.44
56514;BME280;62152;52.078;8.414;2023-06-22T19:23:23;99749.94;;;24.45;57.37
56514;BME280;62152;52.078;8.414;2023-06-22T19:27:29;99738.06;;;24.45;58.99
56514;BME280;62152;52.078;8.414;2023-06-22T19:31:32;99732.53;;;24.45;59.28
56514;BME280;62152;52.078;8.414;2023-06-22T19:35:33;99740.88;;;24.41;59.92
56514;BME280;62152;52.078;8.414;2023-06-22T19:39:34;99746.81;;;24.43;59.15
56514;BME280;62152;52.078;8.414;2023-06-22T19:43:35;99730.16;;;24.43;58.44
56514;BME280;62152;52.078;8.414;2023-06-22T19:47:38;99719.88;;;24.44;57.34
56514;BME280;62152;52.078;8.414;2023-06-22T19:51:39;99723.81;;;24.43;58.83
56514;BME280;62152;52.078;8.414;2023-06-22T19:55:41;99723.47;;;24.41;58.71
56514;BME280;62152;52.078;8.414;2023-06-22T19:59:43;99723.00;;;24.46;58.75
56514;BME280;62152;52.078;8.414;2023-06-22T20:03:45;99730.84;;;24.51;58.24
56514;BME280;62152;52.078;8.414;2023-06-22T20:07:46;99728.00;;;24.54;57.97
56514;BME280;62152;52.078;8.414;2023-06-22T20:11:56;99723.22;;;24.55;57.76
56514;BME280;62152;52.078;8.414;2023-06-22T20:15:57;99722.13;;;24.49;57.89
56514;BME280;62152;52.078;8.414;2023-06-22T20:20:20;99721.34;;;24.48;57.27
56514;BME280;62152;52.078;8.414;2023-06-22T20:24:22;99700.81;;;24.46;57.44
56514;BME280;62152;52.078;8.414;2023-06-22T20:28:25;99699.25;;;24.45;57.54
56514;BME280;62152;52.078;8.414;2023-06-22T20:32:26;99688.16;;;24.45;57.35
56514;BME280;62152;52.078;8.414;2023-06-22T20:36:28;99681.06;;;24.44;57.44
56514;BME280;62152;52.078;8.414;2023-06-22T20:40:29;99687.00;;;24.42;57.30
56514;BME280;62152;52.078;8.414;2023-06-22T20:44:30;99696.09;;;24.43;57.37
56514;BME280;62152;52.078;8.414;2023-06-22T20:48:30;99689.00;;;24.42;57.59
56514;BME280;62152;52.078;8.414;2023-06-22T20:52:33;99681.88;;;24.41;57.92
56514;BME280;62152;52.078;8.414;2023-06-22T20:56:33;99681.88;;;24.41;57.46
56514;BME280;62152;52.078;8.414;2023-06-22T21:00:35;99692.19;;;24.40;57.44
56514;BME280;62152;52.078;8.414;2023-06-22T21:04:37;99685.88;;;24.40;56.96
56514;BME280;62152;52.078;8.414;2023-06-22T21:08:39;99687.06;;;24.39;57.26